Time;durP1;ratioP1;P1;durP2;ratioP2;P2;SDS_P1;SDS_P2;PMS_P1;PMS_P2;Temp;Humidity;BMP_temperature;BMP_pressure;BME280_temperature;BME280_humidity;BME280_pressure;Samples;Min_cycle;Max_cycle;Signal;HPM_P1;HPM_P2
2022/03/06 00:00:50;;;;;;;31.80;18.63;;;;;;;;;;4995623;28;20642;-69
2022/03/06 00:03:16;;;;;;;32.65;18.55;;;;;;;;;;4996105;28;20410;-69
2022/03/06 00:05:42;;;;;;;26.05;16.20;;;;;;;;;;4995881;28;20241;-68
2022/03/06 00:08:08;;;;;;;23.17;15.70;;;;;;;;;;4995995;28;20630;-68
2022/03/06 00:10:34;;;;;;;23.67;16.27;;;;;;;;;;4995791;28;20952;-68
2022/03/06 00:13:00;;;;;;;31.92;18.50;;;;;;;;;;4995593;28;20294;-64
2022/03/06 00:15:26;;;;;;;27.90;18.00;;;;;;;;;;4995688;28;20162;-64
2022/03/06 00:17:54;;;;;;;29.58;18.27;;;;;;;;;;4995529;28;20596;-64
2022/03/06 00:20:20;;;;;;;32.90;17.73;;;;;;;;;;4995572;28;20163;-63
2022/03/06 00:22:46;;;;;;;30.55;18.00;;;;;;;;;;4977892;28;20274;-63
2022/03/06 00:25:12;;;;;;;22.40;15.50;;;;;;;;;;4995382;28;20685;-64
2022/03/06 00:27:38;;;;;;;23.13;15.52;;;;;;;;;;4995367;28;20418;-63
2022/03/06 00:30:05;;;;;;;22.65;15.10;;;;;;;;;;4995391;28;20253;-64
2022/03/06 00:32:31;;;;;;;24.33;15.82;;;;;;;;;;4995612;28;20210;-64
2022/03/06 00:34:57;;;;;;;21.20;15.17;;;;;;;;;;4995225;28;20198;-64
2022/03/06 00:37:23;;;;;;;23.07;14.43;;;;;;;;;;4995136;28;20464;-63
2022/03/06 00:39:49;;;;;;;24.10;15.27;;;;;;;;;;4995083;28;20418;-64
2022/03/06 00:42:15;;;;;;;24.43;16.40;;;;;;;;;;4995004;28;20808;-67
2022/03/06 00:44:41;;;;;;;31.40;16.80;;;;;;;;;;4995070;28;20409;-63
2022/03/06 00:47:07;;;;;;;29.53;16.47;;;;;;;;;;4995101;28;20410;-64
2022/03/06 00:49:33;;;;;;;25.30;15.15;;;;;;;;;;4994917;28;20402;-64
2022/03/06 00:51:59;;;;;;;22.83;15.90;;;;;;;;;;4994867;28;20246;-64
2022/03/06 00:54:25;;;;;;;31.20;18.48;;;;;;;;;;4994782;28;20216;-65
2022/03/06 00:56:51;;;;;;;32.05;16.75;;;;;;;;;;4994884;28;20225;-63
2022/03/06 00:59:17;;;;;;;22.80;15.80;;;;;;;;;;4995102;28;20232;-65
2022/03/06 01:01:43;;;;;;;23.13;15.43;;;;;;;;;;4994809;28;20254;-63
2022/03/06 01:04:09;;;;;;;22.08;15.90;;;;;;;;;;4994755;28;20626;-64
2022/03/06 01:06:36;;;;;;;22.95;15.32;;;;;;;;;;4994521;28;20256;-64
2022/03/06 01:09:02;;;;;;;23.10;15.10;;;;;;;;;;4994557;28;20186;-64
2022/03/06 01:11:28;;;;;;;22.73;15.27;;;;;;;;;;4994696;28;20173;-64
2022/03/06 01:13:54;;;;;;;19.77;13.97;;;;;;;;;;4994437;28;20214;-63
2022/03/06 01:16:20;;;;;;;24.27;15.23;;;;;;;;;;4994473;28;20471;-64
2022/03/06 01:18:46;;;;;;;20.20;14.40;;;;;;;;;;4994457;28;20420;-64
2022/03/06 01:21:12;;;;;;;23.40;15.15;;;;;;;;;;4994425;28;20413;-63
2022/03/06 01:23:38;;;;;;;20.13;13.40;;;;;;;;;;4994237;28;20178;-65
2022/03/06 01:26:04;;;;;;;23.77;14.57;;;;;;;;;;4994366;28;20432;-68
2022/03/06 01:28:30;;;;;;;22.23;14.18;;;;;;;;;;4994397;28;20194;-67
2022/03/06 01:30:56;;;;;;;21.58;14.88;;;;;;;;;;4994316;28;20591;-67
2022/03/06 01:33:22;;;;;;;26.50;13.30;;;;;;;;;;4994210;28;20206;-63
2022/03/06 01:35:48;;;;;;;20.92;13.60;;;;;;;;;;4994232;28;20398;-63
2022/03/06 01:38:14;;;;;;;19.93;13.17;;;;;;;;;;4994260;28;20240;-63
2022/03/06 01:40:41;;;;;;;23.93;14.07;;;;;;;;;;4994052;28;20445;-63
2022/03/06 01:43:07;;;;;;;19.65;13.25;;;;;;;;;;4994183;28;20762;-65
2022/03/06 01:45:33;;;;;;;27.75;14.63;;;;;;;;;;4994118;28;20641;-65
2022/03/06 01:48:01;;;;;;;24.67;13.20;;;;;;;;;;4994088;28;20202;-65
2022/03/06 01:50:28;;;;;;;21.10;13.90;;;;;;;;;;4994077;28;20155;-63
2022/03/06 01:52:55;;;;;;;23.20;13.82;;;;;;;;;;4993930;28;20214;-64
2022/03/06 01:55:24;;;;;;;21.67;14.23;;;;;;;;;;4994026;28;20178;-64
2022/03/06 01:57:50;;;;;;;22.85;13.50;;;;;;;;;;4994289;28;20174;-64
2022/03/06 02:00:17;;;;;;;21.58;13.77;;;;;;;;;;4994006;28;20657;-64
2022/03/06 02:02:43;;;;;;;16.88;12.88;;;;;;;;;;4993876;28;20177;-64
2022/03/06 02:05:09;;;;;;;20.92;13.43;;;;;;;;;;4976332;28;20229;-67
2022/03/06 02:07:35;;;;;;;18.10;13.07;;;;;;;;;;4993770;28;20236;-65
2022/03/06 02:10:02;;;;;;;26.83;13.37;;;;;;;;;;4993841;28;20170;-65
2022/03/06 02:12:28;;;;;;;20.33;13.55;;;;;;;;;;4993786;28;20476;-63
2022/03/06 02:14:55;;;;;;;19.45;13.75;;;;;;;;;;4993835;28;20181;-65
2022/03/06 02:17:22;;;;;;;19.58;13.75;;;;;;;;;;4993833;28;20210;-64
2022/03/06 02:19:54;;;;;;;20.65;13.43;;;;;;;;;;4994054;28;20178;-64
2022/03/06 02:22:20;;;;;;;19.55;12.45;;;;;;;;;;4993755;28;20206;-67
2022/03/06 02:24:46;;;;;;;19.40;12.80;;;;;;;;;;4997461;28;20253;-65
2022/03/06 02:27:12;;;;;;;20.60;12.93;;;;;;;;;;4997736;28;20623;-64
2022/03/06 02:29:40;;;;;;;18.53;13.10;;;;;;;;;;4997723;28;20258;-64
2022/03/06 02:32:07;;;;;;;20.27;13.38;;;;;;;;;;4997531;28;20853;-64
2022/03/06 02:34:33;;;;;;;20.45;13.55;;;;;;;;;;4997521;28;20233;-64
2022/03/06 02:37:01;;;;;;;17.02;12.02;;;;;;;;;;4997510;28;20272;-64
2022/03/06 02:39:27;;;;;;;17.55;12.73;;;;;;;;;;4980005;28;20175;-64
2022/03/06 02:41:53;;;;;;;16.77;11.93;;;;;;;;;;4997325;28;20622;-65
2022/03/06 02:44:21;;;;;;;20.30;13.43;;;;;;;;;;4997327;28;20422;-65
2022/03/06 02:46:47;;;;;;;18.83;13.13;;;;;;;;;;4979810;28;20424;-65
2022/03/06 02:49:13;;;;;;;19.63;12.25;;;;;;;;;;4997262;28;20171;-65
2022/03/06 02:51:44;;;;;;;21.35;14.13;;;;;;;;;;4997262;28;20599;-66
2022/03/06 02:54:10;;;;;;;17.85;12.57;;;;;;;;;;4997149;28;20637;-64
2022/03/06 02:56:37;;;;;;;19.65;13.10;;;;;;;;;;4997120;28;20178;-64
2022/03/06 02:59:03;;;;;;;19.73;11.95;;;;;;;;;;4997143;28;20174;-66
2022/03/06 03:01:29;;;;;;;16.48;11.95;;;;;;;;;;4997039;28;20171;-67
2022/03/06 03:03:55;;;;;;;18.42;12.85;;;;;;;;;;4996923;28;20229;-64
2022/03/06 03:06:24;;;;;;;18.00;12.60;;;;;;;;;;4996697;28;20312;-67
2022/03/06 03:08:50;;;;;;;17.15;12.52;;;;;;;;;;4996849;28;20417;-66
2022/03/06 03:11:16;;;;;;;23.67;12.10;;;;;;;;;;4996887;28;20175;-69
2022/03/06 03:13:42;;;;;;;15.57;11.65;;;;;;;;;;4996667;28;20469;-68
2022/03/06 03:16:08;;;;;;;20.27;12.57;;;;;;;;;;4996732;28;20217;-69
2022/03/06 03:18:34;;;;;;;23.42;13.07;;;;;;;;;;4996601;28;20496;-68
2022/03/06 03:21:00;;;;;;;19.03;11.73;;;;;;;;;;4996639;28;20171;-68
2022/03/06 03:23:27;;;;;;;18.27;12.60;;;;;;;;;;4996572;28;20425;-69
2022/03/06 03:25:53;;;;;;;19.48;12.85;;;;;;;;;;4996735;28;20406;-68
2022/03/06 03:28:19;;;;;;;21.00;13.40;;;;;;;;;;4996596;28;20186;-67
2022/03/06 03:30:45;;;;;;;20.07;11.97;;;;;;;;;;4996557;28;20406;-68
2022/03/06 03:33:11;;;;;;;18.77;13.10;;;;;;;;;;4978840;28;20477;-65
2022/03/06 03:35:37;;;;;;;19.20;12.90;;;;;;;;;;4995282;28;20438;-65
2022/03/06 03:38:03;;;;;;;18.50;12.20;;;;;;;;;;4996289;28;20421;-67
2022/03/06 03:40:29;;;;;;;19.42;12.70;;;;;;;;;;4996291;28;20492;-65
2022/03/06 03:42:55;;;;;;;20.88;11.93;;;;;;;;;;4996256;28;20170;-66
2022/03/06 03:45:21;;;;;;;20.43;12.37;;;;;;;;;;4996255;28;20177;-67
2022/03/06 03:47:47;;;;;;;19.73;12.23;;;;;;;;;;4978666;28;20438;-68
2022/03/06 03:50:13;;;;;;;18.30;13.27;;;;;;;;;;4996078;28;20414;-65
2022/03/06 03:52:39;;;;;;;17.30;11.87;;;;;;;;;;4995926;28;20476;-67
2022/03/06 03:55:06;;;;;;;18.17;11.80;;;;;;;;;;4996056;28;20432;-65
2022/03/06 03:57:32;;;;;;;19.35;13.20;;;;;;;;;;4996195;28;20757;-67
2022/03/06 03:59:58;;;;;;;19.97;13.80;;;;;;;;;;4995978;28;20175;-66
2022/03/06 04:02:23;;;;;;;22.60;12.53;;;;;;;;;;4995908;28;20417;-68
2022/03/06 04:04:50;;;;;;;20.63;13.40;;;;;;;;;;4978229;28;20521;-66
2022/03/06 04:07:16;;;;;;;18.85;12.52;;;;;;;;;;4995845;28;20420;-66
2022/03/06 04:09:42;;;;;;;21.42;13.02;;;;;;;;;;4978269;28;20233;-67
2022/03/06 04:12:08;;;;;;;16.67;12.60;;;;;;;;;;4995615;28;20320;-67
2022/03/06 04:14:34;;;;;;;19.95;13.23;;;;;;;;;;4995640;28;20174;-66
2022/03/06 04:17:00;;;;;;;18.83;12.98;;;;;;;;;;4995675;28;20167;-65
2022/03/06 04:19:26;;;;;;;20.63;13.00;;;;;;;;;;4995579;28;20539;-65
2022/03/06 04:21:53;;;;;;;21.58;12.10;;;;;;;;;;4977932;28;20591;-65
2022/03/06 04:24:19;;;;;;;18.25;12.95;;;;;;;;;;4995522;28;20179;-67
2022/03/06 04:26:45;;;;;;;18.63;12.33;;;;;;;;;;4995324;28;20170;-67
2022/03/06 04:29:11;;;;;;;19.98;13.35;;;;;;;;;;4995381;28;20422;-67
2022/03/06 04:31:37;;;;;;;18.35;11.82;;;;;;;;;;4995296;28;20582;-66
2022/03/06 04:34:03;;;;;;;19.70;12.80;;;;;;;;;;4977677;28;20240;-65
2022/03/06 04:36:29;;;;;;;20.00;13.73;;;;;;;;;;4995252;28;20430;-65
2022/03/06 04:38:55;;;;;;;22.42;12.32;;;;;;;;;;4995248;28;20182;-65
2022/03/06 04:41:21;;;;;;;17.20;12.43;;;;;;;;;;4995394;28;20202;-68
2022/03/06 04:43:47;;;;;;;16.60;11.90;;;;;;;;;;4995164;28;20170;-65
2022/03/06 04:46:13;;;;;;;20.33;13.13;;;;;;;;;;4994803;28;20170;-65
2022/03/06 04:48:39;;;;;;;17.10;11.97;;;;;;;;;;4995014;28;20499;-66
2022/03/06 04:51:05;;;;;;;18.67;12.60;;;;;;;;;;4994973;28;20468;-65
2022/03/06 04:53:31;;;;;;;19.40;12.52;;;;;;;;;;4995022;28;20312;-67
2022/03/06 04:55:57;;;;;;;20.63;12.68;;;;;;;;;;4994874;28;20173;-67
2022/03/06 04:58:23;;;;;;;21.20;13.27;;;;;;;;;;4994880;28;20174;-65
2022/03/06 05:00:49;;;;;;;19.40;12.20;;;;;;;;;;4994834;28;20410;-66
2022/03/06 05:03:15;;;;;;;22.70;12.80;;;;;;;;;;4994810;28;20413;-67
2022/03/06 05:05:41;;;;;;;26.57;12.97;;;;;;;;;;4994501;28;20230;-65
2022/03/06 05:08:07;;;;;;;18.73;12.07;;;;;;;;;;4994694;28;20951;-65
2022/03/06 05:10:34;;;;;;;20.02;12.13;;;;;;;;;;4994904;28;20410;-65
2022/03/06 05:13:00;;;;;;;22.55;12.65;;;;;;;;;;4994644;28;20377;-66
2022/03/06 05:15:26;;;;;;;18.00;11.87;;;;;;;;;;4994540;28;20660;-65
2022/03/06 05:17:52;;;;;;;27.42;13.15;;;;;;;;;;4994588;28;20406;-66
2022/03/06 05:20:18;;;;;;;18.25;12.63;;;;;;;;;;4977013;28;20526;-66
2022/03/06 05:22:44;;;;;;;19.10;12.73;;;;;;;;;;4994390;28;20171;-66
2022/03/06 05:25:10;;;;;;;22.40;13.40;;;;;;;;;;4994363;28;20413;-66
2022/03/06 05:27:37;;;;;;;20.80;13.20;;;;;;;;;;4994717;28;20730;-66
2022/03/06 05:30:04;;;;;;;22.75;13.73;;;;;;;;;;4994278;28;20170;-66
2022/03/06 05:32:30;;;;;;;21.80;13.23;;;;;;;;;;4994202;28;20281;-65
2022/03/06 05:34:56;;;;;;;19.97;13.40;;;;;;;;;;4994208;28;20546;-65
2022/03/06 05:37:22;;;;;;;21.83;13.47;;;;;;;;;;4994248;28;20414;-65
2022/03/06 05:39:48;;;;;;;21.30;13.40;;;;;;;;;;4994146;28;20465;-66
2022/03/06 05:42:14;;;;;;;20.40;13.27;;;;;;;;;;4994185;28;20406;-65
2022/03/06 05:44:41;;;;;;;24.13;15.23;;;;;;;;;;4994342;28;20406;-66
2022/03/06 05:47:07;;;;;;;22.08;13.80;;;;;;;;;;4994343;28;20174;-69
2022/03/06 05:49:33;;;;;;;22.02;13.73;;;;;;;;;;4994088;28;20166;-66
2022/03/06 05:51:59;;;;;;;22.83;14.73;;;;;;;;;;4993940;28;20177;-65
2022/03/06 05:54:25;;;;;;;24.03;13.30;;;;;;;;;;4993875;28;20190;-66
2022/03/06 05:56:51;;;;;;;23.17;15.17;;;;;;;;;;4993908;28;20433;-67
2022/03/06 05:59:17;;;;;;;23.52;13.10;;;;;;;;;;4993547;28;20429;-68
2022/03/06 06:01:43;;;;;;;27.15;16.10;;;;;;;;;;4993929;28;20170;-68
2022/03/06 06:04:09;;;;;;;24.37;15.13;;;;;;;;;;4994006;28;20251;-68
2022/03/06 06:06:35;;;;;;;28.42;15.52;;;;;;;;;;4993639;28;20476;-67
2022/03/06 06:09:01;;;;;;;34.28;16.60;;;;;;;;;;4994129;28;20193;-68
2022/03/06 06:11:27;;;;;;;21.13;14.63;;;;;;;;;;4994142;28;20185;-68
2022/03/06 06:13:53;;;;;;;25.37;16.70;;;;;;;;;;4993804;28;20579;-67
2022/03/06 06:16:19;;;;;;;41.47;22.23;;;;;;;;;;4993806;28;20402;-68
2022/03/06 06:18:45;;;;;;;45.03;19.20;;;;;;;;;;4993798;28;20513;-68
2022/03/06 06:21:11;;;;;;;167.75;51.40;;;;;;;;;;4993855;28;20417;-66
2022/03/06 06:23:37;;;;;;;31.98;16.98;;;;;;;;;;4993568;28;20186;-69
2022/03/06 06:26:03;;;;;;;24.52;14.10;;;;;;;;;;4993827;28;20170;-68
2022/03/06 06:28:29;;;;;;;60.67;22.73;;;;;;;;;;4994024;28;20229;-69
2022/03/06 06:30:55;;;;;;;26.17;15.03;;;;;;;;;;4993746;28;20715;-67
2022/03/06 06:33:21;;;;;;;28.73;14.10;;;;;;;;;;4993616;28;20496;-68
2022/03/06 06:35:47;;;;;;;25.30;14.73;;;;;;;;;;4993611;28;20529;-68
2022/03/06 06:38:13;;;;;;;19.83;12.93;;;;;;;;;;4993503;28;20901;-68
2022/03/06 06:40:39;;;;;;;19.08;12.48;;;;;;;;;;4993911;28;20402;-69
2022/03/06 06:43:05;;;;;;;21.37;14.00;;;;;;;;;;4993612;28;20578;-69
2022/03/06 06:45:31;;;;;;;22.83;14.60;;;;;;;;;;4993594;28;20409;-68
2022/03/06 06:47:57;;;;;;;20.30;13.88;;;;;;;;;;4993628;28;20460;-68
2022/03/06 06:50:23;;;;;;;24.53;14.50;;;;;;;;;;4993595;28;20174;-68
2022/03/06 06:52:49;;;;;;;23.27;15.90;;;;;;;;;;4993409;28;20505;-68
2022/03/06 06:55:15;;;;;;;25.50;15.93;;;;;;;;;;4993549;28;20194;-68
2022/03/06 06:57:41;;;;;;;23.17;14.60;;;;;;;;;;4993869;28;20489;-69
2022/03/06 07:00:07;;;;;;;24.77;15.07;;;;;;;;;;4993520;28;20591;-67
2022/03/06 07:02:33;;;;;;;25.83;15.90;;;;;;;;;;4993457;28;20406;-68
2022/03/06 07:04:59;;;;;;;27.65;17.40;;;;;;;;;;4993310;28;20175;-72
2022/03/06 07:07:25;;;;;;;18.70;13.57;;;;;;;;;;4993487;28;20233;-69
2022/03/06 07:09:51;;;;;;;21.60;13.97;;;;;;;;;;4995410;28;20765;-69
2022/03/06 07:12:17;;;;;;;23.60;15.47;;;;;;;;;;4996835;28;20461;-70
2022/03/06 07:14:43;;;;;;;21.47;13.93;;;;;;;;;;4997094;28;20418;-72
2022/03/06 07:17:09;;;;;;;32.50;24.60;;;;;;;;;;4996852;28;20948;-72
2022/03/06 07:19:35;;;;;;;32.83;21.67;;;;;;;;;;4996738;28;20768;-71
2022/03/06 07:22:01;;;;;;;27.50;17.53;;;;;;;;;;4996739;28;20508;-71
2022/03/06 07:24:27;;;;;;;23.93;14.93;;;;;;;;;;4979208;28;20425;-70
2022/03/06 07:26:53;;;;;;;19.42;13.18;;;;;;;;;;4996677;28;20452;-69
2022/03/06 07:29:19;;;;;;;21.85;14.63;;;;;;;;;;4996821;28;20262;-69
2022/03/06 07:31:45;;;;;;;20.88;13.20;;;;;;;;;;4996831;28;20257;-70
2022/03/06 07:34:11;;;;;;;21.30;13.50;;;;;;;;;;4996497;28;20673;-69
2022/03/06 07:36:37;;;;;;;25.60;15.80;;;;;;;;;;4996450;28;20811;-68
2022/03/06 07:39:03;;;;;;;19.40;13.70;;;;;;;;;;4996505;28;20450;-68
2022/03/06 07:41:29;;;;;;;22.25;13.80;;;;;;;;;;4979375;28;20417;-69
2022/03/06 07:43:56;;;;;;;22.45;14.43;;;;;;;;;;4996802;28;20229;-69
2022/03/06 07:46:22;;;;;;;20.60;14.23;;;;;;;;;;4996813;28;20588;-69
2022/03/06 07:48:48;;;;;;;18.77;13.40;;;;;;;;;;4996539;28;20171;-71
2022/03/06 07:51:14;;;;;;;26.83;14.80;;;;;;;;;;4996302;28;20766;-68
2022/03/06 07:53:40;;;;;;;21.13;15.25;;;;;;;;;;4996087;28;20473;-71
2022/03/06 07:56:06;;;;;;;22.55;14.30;;;;;;;;;;4996175;28;20174;-70
2022/03/06 07:58:32;;;;;;;22.10;13.20;;;;;;;;;;4995960;28;20174;-69
2022/03/06 08:00:58;;;;;;;24.67;15.37;;;;;;;;;;4995976;28;20406;-68
2022/03/06 08:03:24;;;;;;;27.33;18.05;;;;;;;;;;4996201;28;20548;-69
2022/03/06 08:05:50;;;;;;;20.77;14.52;;;;;;;;;;4978302;28;20765;-68
2022/03/06 08:08:16;;;;;;;22.20;15.03;;;;;;;;;;4995835;28;20225;-68
2022/03/06 08:10:42;;;;;;;19.43;14.07;;;;;;;;;;4995708;28;20920;-68
2022/03/06 08:13:08;;;;;;;21.50;15.13;;;;;;;;;;4995720;28;20464;-68
2022/03/06 08:15:34;;;;;;;22.73;14.83;;;;;;;;;;4995630;28;20920;-69
2022/03/06 08:18:00;;;;;;;23.73;15.20;;;;;;;;;;4995697;28;20420;-69
2022/03/06 08:20:26;;;;;;;21.07;15.23;;;;;;;;;;4995167;28;20171;-68
2022/03/06 08:22:52;;;;;;;22.38;15.32;;;;;;;;;;4995484;28;20410;-69
2022/03/06 08:25:20;;;;;;;26.57;16.07;;;;;;;;;;4978114;28;20201;-69
2022/03/06 08:27:46;;;;;;;24.75;15.50;;;;;;;;;;4995480;28;20410;-68
2022/03/06 08:30:12;;;;;;;22.80;16.00;;;;;;;;;;4995434;28;20178;-68
2022/03/06 08:32:39;;;;;;;25.95;16.50;;;;;;;;;;4995659;28;20548;-69
2022/03/06 08:35:05;;;;;;;26.27;16.25;;;;;;;;;;4995713;28;20518;-69
2022/03/06 08:37:33;;;;;;;22.70;15.18;;;;;;;;;;4995724;28;20198;-67
2022/03/06 08:39:59;;;;;;;23.58;16.15;;;;;;;;;;4995451;28;20178;-64
2022/03/06 08:42:25;;;;;;;23.50;16.70;;;;;;;;;;4995364;28;20617;-69
2022/03/06 08:44:51;;;;;;;26.70;16.23;;;;;;;;;;4995370;28;20405;-68
2022/03/06 08:47:17;;;;;;;22.33;16.13;;;;;;;;;;4995048;28;20409;-68
2022/03/06 08:49:43;;;;;;;22.90;15.48;;;;;;;;;;4995131;28;20441;-69
2022/03/06 08:52:10;;;;;;;25.98;16.40;;;;;;;;;;4994943;28;20175;-69
2022/03/06 08:54:36;;;;;;;23.98;16.23;;;;;;;;;;4994949;28;20186;-68
2022/03/06 08:57:03;;;;;;;20.92;16.48;;;;;;;;;;4994982;28;20696;-69
2022/03/06 08:59:29;;;;;;;24.98;16.85;;;;;;;;;;4995147;28;20885;-68
2022/03/06 09:01:58;;;;;;;22.67;15.95;;;;;;;;;;4994837;28;20242;-70
2022/03/06 09:04:24;;;;;;;20.42;15.35;;;;;;;;;;4977296;28;20174;-69
2022/03/06 09:06:50;;;;;;;26.02;17.50;;;;;;;;;;4994591;28;20252;-68
2022/03/06 09:09:16;;;;;;;24.08;16.88;;;;;;;;;;4994688;28;20633;-68
2022/03/06 09:11:45;;;;;;;23.15;16.30;;;;;;;;;;4994642;28;20170;-68
2022/03/06 09:14:11;;;;;;;22.92;16.45;;;;;;;;;;4994500;28;20705;-68
2022/03/06 09:16:37;;;;;;;46.00;22.58;;;;;;;;;;4994571;28;20175;-69
2022/03/06 09:19:03;;;;;;;43.95;20.60;;;;;;;;;;4994465;28;20186;-71
2022/03/06 09:21:29;;;;;;;61.45;25.08;;;;;;;;;;4994516;28;20202;-69
2022/03/06 09:23:55;;;;;;;54.08;22.05;;;;;;;;;;4994262;28;20531;-69
2022/03/06 09:26:21;;;;;;;25.53;15.73;;;;;;;;;;4976898;28;20180;-70
2022/03/06 09:28:47;;;;;;;22.43;15.93;;;;;;;;;;4994275;28;20392;-68
2022/03/06 09:31:13;;;;;;;19.27;14.47;;;;;;;;;;4994263;28;20402;-68
2022/03/06 09:33:39;;;;;;;25.00;16.80;;;;;;;;;;4993415;28;20841;-68
2022/03/06 09:36:05;;;;;;;25.50;16.87;;;;;;;;;;4994173;28;20388;-69
2022/03/06 09:38:31;;;;;;;59.53;28.03;;;;;;;;;;4994015;28;20424;-68
2022/03/06 09:41:00;;;;;;;43.00;23.03;;;;;;;;;;4994104;28;20453;-68
2022/03/06 09:43:26;;;;;;;29.27;17.63;;;;;;;;;;4994128;28;20400;-71
2022/03/06 09:45:59;;;;;;;33.70;19.20;;;;;;;;;;4994224;28;20411;-68
2022/03/06 09:48:25;;;;;;;48.37;23.73;;;;;;;;;;4994067;28;20389;-71
2022/03/06 09:50:51;;;;;;;25.10;18.03;;;;;;;;;;4993919;28;20406;-68
2022/03/06 09:53:17;;;;;;;26.37;17.70;;;;;;;;;;4993830;28;20543;-69
2022/03/06 09:55:43;;;;;;;21.33;17.00;;;;;;;;;;4993920;28;20414;-68
2022/03/06 09:58:10;;;;;;;39.00;23.33;;;;;;;;;;4994009;28;20418;-68
2022/03/06 10:00:36;;;;;;;32.73;17.90;;;;;;;;;;4994136;28;20416;-69
2022/03/06 10:03:03;;;;;;;28.87;18.57;;;;;;;;;;4994150;28;20464;-69
2022/03/06 10:05:32;;;;;;;45.20;25.20;;;;;;;;;;4993607;28;20469;-70
2022/03/06 10:08:27;;;;;;;22.57;17.30;;;;;;;;;;4993806;28;20788;-68
2022/03/06 10:10:55;;;;;;;17.27;15.13;;;;;;;;;;4977601;28;20425;-69
2022/03/06 10:13:31;;;;;;;21.37;15.90;;;;;;;;;;4993903;28;20470;-68
2022/03/06 10:15:57;;;;;;;20.67;16.20;;;;;;;;;;4994087;28;20417;-71
2022/03/06 10:18:23;;;;;;;18.77;16.03;;;;;;;;;;4993860;28;20393;-70
2022/03/06 10:20:49;;;;;;;29.67;22.07;;;;;;;;;;4993752;28;20445;-71
2022/03/06 10:23:25;;;;;;;19.23;17.07;;;;;;;;;;4993754;28;20865;-68
2022/03/06 10:26:04;;;;;;;19.00;16.90;;;;;;;;;;4993769;28;20412;-71
2022/03/06 10:28:31;;;;;;;23.00;17.87;;;;;;;;;;4993802;28;20401;-69
2022/03/06 10:31:04;;;;;;;20.43;16.90;;;;;;;;;;4993674;28;20414;-73
2022/03/06 10:33:30;;;;;;;19.57;17.00;;;;;;;;;;4993829;28;20498;-71
2022/03/06 10:35:58;;;;;;;18.27;16.37;;;;;;;;;;4976316;28;20423;-72
2022/03/06 10:38:31;;;;;;;24.87;22.20;;;;;;;;;;4993841;28;20433;-69
2022/03/06 10:41:17;;;;;;;16.23;14.63;;;;;;;;;;4993682;28;20921;-71
2022/03/06 10:43:43;;;;;;;17.00;15.37;;;;;;;;;;4976494;28;20444;-70
2022/03/06 10:46:13;;;;;;;16.87;15.07;;;;;;;;;;4997382;28;20500;-70
2022/03/06 10:48:39;;;;;;;16.53;14.90;;;;;;;;;;4997392;28;20410;-73
2022/03/06 10:51:07;;;;;;;16.70;15.00;;;;;;;;;;4997357;28;20401;-70
2022/03/06 10:53:33;;;;;;;17.90;15.93;;;;;;;;;;4997208;28;20480;-68
2022/03/06 10:56:15;;;;;;;15.87;14.27;;;;;;;;;;4997595;28;20413;-68
2022/03/06 10:58:47;;;;;;;17.10;15.53;;;;;;;;;;4997256;28;20419;-71
2022/03/06 11:01:13;;;;;;;16.10;14.57;;;;;;;;;;4997113;28;20411;-70
2022/03/06 11:03:39;;;;;;;16.40;14.93;;;;;;;;;;4997103;28;20411;-67
2022/03/06 11:06:05;;;;;;;16.47;14.83;;;;;;;;;;4996958;28;21020;-70
2022/03/06 11:08:32;;;;;;;16.83;15.17;;;;;;;;;;4997200;28;20452;-69
2022/03/06 11:10:59;;;;;;;16.63;15.10;;;;;;;;;;4997050;28;20512;-70
2022/03/06 11:13:27;;;;;;;15.07;13.67;;;;;;;;;;4996885;28;20465;-68
2022/03/06 11:15:53;;;;;;;15.87;14.37;;;;;;;;;;4996848;28;20500;-72
2022/03/06 11:18:19;;;;;;;15.70;14.20;;;;;;;;;;4996899;28;20451;-65
2022/03/06 11:20:45;;;;;;;15.10;13.70;;;;;;;;;;4996770;28;20459;-66
2022/03/06 11:23:30;;;;;;;15.93;14.43;;;;;;;;;;4996789;28;20448;-73
2022/03/06 11:26:14;;;;;;;14.90;13.60;;;;;;;;;;4996761;28;20437;-74
2022/03/06 11:28:43;;;;;;;15.70;14.37;;;;;;;;;;4996974;28;20418;-73
2022/03/06 11:31:13;;;;;;;15.50;14.00;;;;;;;;;;4996637;28;20418;-73
2022/03/06 11:33:42;;;;;;;14.73;13.43;;;;;;;;;;4996555;28;20840;-70
2022/03/06 11:36:22;;;;;;;14.13;12.90;;;;;;;;;;4996543;28;20401;-75
2022/03/06 11:38:48;;;;;;;15.40;14.10;;;;;;;;;;4996509;28;20455;-75
2022/03/06 11:41:14;;;;;;;14.93;13.50;;;;;;;;;;4996455;28;20394;-75
2022/03/06 11:43:44;;;;;;;14.60;13.20;;;;;;;;;;4996555;28;20473;-73
2022/03/06 11:46:26;;;;;;;15.10;13.70;;;;;;;;;;4996222;28;20401;-74
2022/03/06 11:48:52;;;;;;;15.47;13.97;;;;;;;;;;4996098;28;20413;-73
2022/03/06 11:51:19;;;;;;;15.27;13.97;;;;;;;;;;4996218;28;20482;-74
2022/03/06 11:54:08;;;;;;;14.70;13.40;;;;;;;;;;4996087;28;20484;-72
2022/03/06 11:56:37;;;;;;;24.53;17.33;;;;;;;;;;4995213;28;20409;-70
2022/03/06 11:59:05;;;;;;;24.87;19.73;;;;;;;;;;4996100;28;20410;-69
2022/03/06 12:01:35;;;;;;;16.77;15.07;;;;;;;;;;4995940;28;20405;-69
2022/03/06 12:04:12;;;;;;;16.40;14.83;;;;;;;;;;4995945;28;20400;-68
2022/03/06 12:06:48;;;;;;;22.10;18.00;;;;;;;;;;4995798;28;20553;-67
2022/03/06 12:09:15;;;;;;;18.67;16.07;;;;;;;;;;4995844;28;20418;-68
2022/03/06 12:11:41;;;;;;;38.63;23.50;;;;;;;;;;4995883;28;20406;-68
2022/03/06 12:14:14;;;;;;;25.20;18.40;;;;;;;;;;4995728;28;20474;-69
2022/03/06 12:16:58;;;;;;;16.13;14.50;;;;;;;;;;4995745;28;20502;-69
2022/03/06 12:19:24;;;;;;;29.97;25.03;;;;;;;;;;4995721;28;20442;-69
2022/03/06 12:21:50;;;;;;;18.83;16.87;;;;;;;;;;4995707;28;20473;-68
2022/03/06 12:24:27;;;;;;;29.07;21.00;;;;;;;;;;4995645;28;20569;-67
2022/03/06 12:26:54;;;;;;;15.93;14.40;;;;;;;;;;4978106;28;20940;-68
2022/03/06 12:29:52;;;;;;;15.77;14.30;;;;;;;;;;4995615;28;20422;-68
2022/03/06 12:32:27;;;;;;;16.20;14.60;;;;;;;;;;4952698;28;20436;-68
2022/03/06 12:35:03;;;;;;;15.33;14.00;;;;;;;;;;4978016;28;20473;-68
2022/03/06 12:37:31;;;;;;;38.03;24.00;;;;;;;;;;4995268;28;20398;-69
2022/03/06 12:39:57;;;;;;;18.23;16.20;;;;;;;;;;4995124;28;20411;-66
2022/03/06 12:42:24;;;;;;;15.20;13.90;;;;;;;;;;4978050;28;20778;-69
2022/03/06 12:44:55;;;;;;;15.27;13.77;;;;;;;;;;4977846;28;20414;-69
2022/03/06 12:47:21;;;;;;;17.03;15.27;;;;;;;;;;4995268;28;20441;-68
2022/03/06 12:49:48;;;;;;;15.10;13.57;;;;;;;;;;4989818;28;20770;-71
2022/03/06 12:52:21;;;;;;;21.70;18.20;;;;;;;;;;4990880;28;20542;-72
2022/03/06 12:54:48;;;;;;;15.00;13.60;;;;;;;;;;4992497;28;20498;-69
2022/03/06 12:57:14;;;;;;;15.83;14.27;;;;;;;;;;4992369;28;20421;-70
2022/03/06 12:59:41;;;;;;;14.37;13.07;;;;;;;;;;4992680;28;20795;-69
2022/03/06 13:02:08;;;;;;;15.70;14.20;;;;;;;;;;4992493;28;20509;-68
2022/03/06 13:04:34;;;;;;;17.00;15.20;;;;;;;;;;4992190;28;20422;-71
2022/03/06 13:07:01;;;;;;;15.43;13.93;;;;;;;;;;4993727;28;20465;-70
2022/03/06 13:09:34;;;;;;;16.17;14.30;;;;;;;;;;4973466;28;20430;-69
2022/03/06 13:12:00;;;;;;;21.93;15.40;;;;;;;;;;4974665;28;20429;-71
2022/03/06 13:14:28;;;;;;;17.07;15.30;;;;;;;;;;4991869;28;20883;-71
2022/03/06 13:16:55;;;;;;;21.43;14.07;;;;;;;;;;4992243;28;20916;-72
2022/03/06 13:19:21;;;;;;;20.43;16.70;;;;;;;;;;4992075;28;20930;-74
2022/03/06 13:21:48;;;;;;;15.83;14.20;;;;;;;;;;4991883;28;20421;-71
2022/03/06 13:24:15;;;;;;;28.60;20.40;;;;;;;;;;4991601;28;20426;-72
2022/03/06 13:26:41;;;;;;;16.43;14.63;;;;;;;;;;4993551;28;20433;-72
2022/03/06 13:29:12;;;;;;;16.23;14.30;;;;;;;;;;4994301;28;20897;-71
2022/03/06 13:31:46;;;;;;;14.30;12.80;;;;;;;;;;4994388;28;20418;-75
2022/03/06 13:34:16;;;;;;;16.53;13.43;;;;;;;;;;4994106;28;20869;-68
2022/03/06 13:36:43;;;;;;;17.13;14.90;;;;;;;;;;4989654;28;20430;-70
2022/03/06 13:39:10;;;;;;;17.53;15.47;;;;;;;;;;4974294;28;20461;-70
2022/03/06 13:41:36;;;;;;;18.67;15.83;;;;;;;;;;4973831;28;20835;-70
2022/03/06 13:44:06;;;;;;;15.97;14.37;;;;;;;;;;4974071;28;20450;-71
2022/03/06 13:46:36;;;;;;;19.90;17.00;;;;;;;;;;4991411;28;20511;-72
2022/03/06 13:49:12;;;;;;;17.07;15.27;;;;;;;;;;4991584;28;20461;-72
2022/03/06 13:51:38;;;;;;;17.87;14.67;;;;;;;;;;4991434;28;20417;-71
2022/03/06 13:54:06;;;;;;;23.07;17.87;;;;;;;;;;4991134;28;20568;-70
2022/03/06 13:56:34;;;;;;;20.50;15.33;;;;;;;;;;4991455;28;20834;-70
2022/03/06 13:59:00;;;;;;;16.40;14.60;;;;;;;;;;4991303;28;20437;-69
2022/03/06 14:01:27;;;;;;;16.07;14.20;;;;;;;;;;4991728;28;20421;-69
2022/03/06 14:04:03;;;;;;;18.20;14.73;;;;;;;;;;4991711;28;20782;-70
2022/03/06 14:06:32;;;;;;;17.80;13.20;;;;;;;;;;4991337;28;20464;-70
2022/03/06 14:08:59;;;;;;;20.33;15.30;;;;;;;;;;4990798;28;20424;-70
2022/03/06 14:11:25;;;;;;;22.43;15.37;;;;;;;;;;4991262;28;20512;-70
2022/03/06 14:13:55;;;;;;;14.90;13.37;;;;;;;;;;4973231;28;20560;-69
2022/03/06 14:16:24;;;;;;;25.90;19.17;;;;;;;;;;4991275;28;20480;-71